Terminal Aerodrome Forecast
Issued by NWS Albany, NY

Home | Current Version | Previous Version | Text Only | Print | Product List | Glossary On
Versions: 1 2 3 4 5 6 7 8 9 10 11 12 13 14 15
707
FTUS41 KALY 260534
TAFPOU
TAF
KPOU 260534Z 2606/2706 00000KT 6SM BR SCT003 SCT250
      TEMPO 2608/2612 2SM BR BKN006
     FM261300 VRB05KT P6SM FEW035=

USA.gov is the U.S. government's official web portal to all federal, state and local government web resources and services.